sensor_id;sensor_type;location;lat;lon;timestamp;temperature;humidity
53748;DHT22;39655;53.210;5.768;2023-09-19T00:00:20;14.90;85.40
53748;DHT22;39655;53.210;5.768;2023-09-19T00:02:52;14.90;85.40
53748;DHT22;39655;53.210;5.768;2023-09-19T00:05:19;15.00;85.30
53748;DHT22;39655;53.210;5.768;2023-09-19T00:07:50;15.10;84.80
53748;DHT22;39655;53.210;5.768;2023-09-19T00:10:16;15.20;84.40
53748;DHT22;39655;53.210;5.768;2023-09-19T00:12:45;15.30;84.10
53748;DHT22;39655;53.210;5.768;2023-09-19T00:15:11;15.20;84.60
53748;DHT22;39655;53.210;5.768;2023-09-19T00:17:37;15.00;84.60
53748;DHT22;39655;53.210;5.768;2023-09-19T00:20:03;14.80;84.60
53748;DHT22;39655;53.210;5.768;2023-09-19T00:22:41;14.70;84.60
53748;DHT22;39655;53.210;5.768;2023-09-19T00:25:08;14.70;84.40
53748;DHT22;39655;53.210;5.768;2023-09-19T00:27:35;14.80;84.00
53748;DHT22;39655;53.210;5.768;2023-09-19T00:30:07;14.70;84.20
53748;DHT22;39655;53.210;5.768;2023-09-19T00:32:34;14.70;83.80
53748;DHT22;39655;53.210;5.768;2023-09-19T00:35:00;14.70;83.50
53748;DHT22;39655;53.210;5.768;2023-09-19T00:37:26;14.60;82.70
53748;DHT22;39655;53.210;5.768;2023-09-19T00:39:51;14.60;82.90
53748;DHT22;39655;53.210;5.768;2023-09-19T00:42:20;14.50;82.40
53748;DHT22;39655;53.210;5.768;2023-09-19T00:44:47;14.40;82.20
53748;DHT22;39655;53.210;5.768;2023-09-19T00:47:12;14.30;82.40
53748;DHT22;39655;53.210;5.768;2023-09-19T00:49:46;14.20;82.20
53748;DHT22;39655;53.210;5.768;2023-09-19T00:52:15;14.20;82.00
53748;DHT22;39655;53.210;5.768;2023-09-19T00:54:41;14.10;82.60
53748;DHT22;39655;53.210;5.768;2023-09-19T00:57:07;14.20;81.70
53748;DHT22;39655;53.210;5.768;2023-09-19T00:59:34;14.20;81.60
53748;DHT22;39655;53.210;5.768;2023-09-19T01:02:02;14.20;81.40
53748;DHT22;39655;53.210;5.768;2023-09-19T01:04:28;14.10;81.70
53748;DHT22;39655;53.210;5.768;2023-09-19T01:06:54;14.10;81.60
53748;DHT22;39655;53.210;5.768;2023-09-19T01:09:20;14.10;81.60
53748;DHT22;39655;53.210;5.768;2023-09-19T01:11:51;14.10;81.90
53748;DHT22;39655;53.210;5.768;2023-09-19T01:14:30;14.10;81.60
53748;DHT22;39655;53.210;5.768;2023-09-19T01:17:08;14.10;81.50
53748;DHT22;39655;53.210;5.768;2023-09-19T01:20:11;14.10;81.80
53748;DHT22;39655;53.210;5.768;2023-09-19T01:23:35;14.20;81.60
53748;DHT22;39655;53.210;5.768;2023-09-19T01:26:05;14.20;81.50
53748;DHT22;39655;53.210;5.768;2023-09-19T01:28:39;14.30;81.00
53748;DHT22;39655;53.210;5.768;2023-09-19T01:31:10;14.30;82.30
53748;DHT22;39655;53.210;5.768;2023-09-19T01:34:00;14.20;83.50
53748;DHT22;39655;53.210;5.768;2023-09-19T01:36:27;14.30;83.80
53748;DHT22;39655;53.210;5.768;2023-09-19T01:38:54;14.30;83.70
53748;DHT22;39655;53.210;5.768;2023-09-19T01:44:21;14.40;84.30
53748;DHT22;39655;53.210;5.768;2023-09-19T01:46:47;14.30;84.60
53748;DHT22;39655;53.210;5.768;2023-09-19T01:49:37;14.30;84.30
53748;DHT22;39655;53.210;5.768;2023-09-19T01:54:46;14.20;83.00
53748;DHT22;39655;53.210;5.768;2023-09-19T01:57:32;14.30;82.20
53748;DHT22;39655;53.210;5.768;2023-09-19T02:00:06;14.30;81.40
53748;DHT22;39655;53.210;5.768;2023-09-19T02:02:34;14.40;81.40
53748;DHT22;39655;53.210;5.768;2023-09-19T02:05:00;14.30;81.80
53748;DHT22;39655;53.210;5.768;2023-09-19T02:07:25;14.30;81.70
53748;DHT22;39655;53.210;5.768;2023-09-19T02:09:52;14.40;80.70
53748;DHT22;39655;53.210;5.768;2023-09-19T02:12:18;14.40;79.90
53748;DHT22;39655;53.210;5.768;2023-09-19T02:14:44;14.50;78.60
53748;DHT22;39655;53.210;5.768;2023-09-19T02:17:09;14.50;78.50
53748;DHT22;39655;53.210;5.768;2023-09-19T02:19:37;14.60;77.80
53748;DHT22;39655;53.210;5.768;2023-09-19T02:22:04;14.60;77.70
53748;DHT22;39655;53.210;5.768;2023-09-19T02:24:36;14.70;77.80
53748;DHT22;39655;53.210;5.768;2023-09-19T02:27:02;14.50;83.00
53748;DHT22;39655;53.210;5.768;2023-09-19T02:29:31;14.10;85.90
53748;DHT22;39655;53.210;5.768;2023-09-19T02:31:57;13.70;87.50
53748;DHT22;39655;53.210;5.768;2023-09-19T02:34:23;13.50;89.00
53748;DHT22;39655;53.210;5.768;2023-09-19T02:36:51;13.50;90.50
53748;DHT22;39655;53.210;5.768;2023-09-19T02:39:17;13.50;90.40
53748;DHT22;39655;53.210;5.768;2023-09-19T02:41:43;13.40;90.50
53748;DHT22;39655;53.210;5.768;2023-09-19T02:44:09;13.30;91.10
53748;DHT22;39655;53.210;5.768;2023-09-19T02:46:34;13.30;91.10
53748;DHT22;39655;53.210;5.768;2023-09-19T02:49:03;13.40;90.00
53748;DHT22;39655;53.210;5.768;2023-09-19T02:51:32;13.50;88.40
53748;DHT22;39655;53.210;5.768;2023-09-19T02:54:01;13.60;86.00
53748;DHT22;39655;53.210;5.768;2023-09-19T02:56:28;13.60;84.90
53748;DHT22;39655;53.210;5.768;2023-09-19T02:58:55;13.60;84.50
53748;DHT22;39655;53.210;5.768;2023-09-19T03:01:21;13.60;83.20
53748;DHT22;39655;53.210;5.768;2023-09-19T03:03:47;13.60;83.20
53748;DHT22;39655;53.210;5.768;2023-09-19T03:06:13;13.60;84.20
53748;DHT22;39655;53.210;5.768;2023-09-19T03:08:39;13.60;83.70
53748;DHT22;39655;53.210;5.768;2023-09-19T03:11:06;13.70;84.20
53748;DHT22;39655;53.210;5.768;2023-09-19T03:13:33;13.60;84.70
53748;DHT22;39655;53.210;5.768;2023-09-19T03:15:58;13.60;85.20
53748;DHT22;39655;53.210;5.768;2023-09-19T03:18:24;13.60;84.80
53748;DHT22;39655;53.210;5.768;2023-09-19T03:20:55;13.70;84.50
53748;DHT22;39655;53.210;5.768;2023-09-19T03:23:22;13.80;84.00
53748;DHT22;39655;53.210;5.768;2023-09-19T03:25:48;13.90;83.90
53748;DHT22;39655;53.210;5.768;2023-09-19T03:28:13;14.00;83.70
53748;DHT22;39655;53.210;5.768;2023-09-19T03:30:41;14.00;82.80
53748;DHT22;39655;53.210;5.768;2023-09-19T03:33:06;14.00;83.40
53748;DHT22;39655;53.210;5.768;2023-09-19T03:35:32;13.90;82.90
53748;DHT22;39655;53.210;5.768;2023-09-19T03:37:57;13.90;83.40
53748;DHT22;39655;53.210;5.768;2023-09-19T03:40:23;13.90;83.40
53748;DHT22;39655;53.210;5.768;2023-09-19T03:42:50;14.00;83.60
53748;DHT22;39655;53.210;5.768;2023-09-19T03:45:16;14.00;83.50
53748;DHT22;39655;53.210;5.768;2023-09-19T03:47:43;14.00;84.20
53748;DHT22;39655;53.210;5.768;2023-09-19T03:50:09;14.00;84.30
53748;DHT22;39655;53.210;5.768;2023-09-19T03:52:40;14.00;84.00
53748;DHT22;39655;53.210;5.768;2023-09-19T03:55:06;14.10;83.80
53748;DHT22;39655;53.210;5.768;2023-09-19T03:57:32;14.10;83.40
53748;DHT22;39655;53.210;5.768;2023-09-19T03:59:58;14.10;83.30
53748;DHT22;39655;53.210;5.768;2023-09-19T04:02:23;14.10;82.90
53748;DHT22;39655;53.210;5.768;2023-09-19T04:04:50;14.20;83.20
53748;DHT22;39655;53.210;5.768;2023-09-19T04:07:16;14.20;82.60
53748;DHT22;39655;53.210;5.768;2023-09-19T04:09:42;14.20;83.10
53748;DHT22;39655;53.210;5.768;2023-09-19T04:12:08;14.30;83.20
53748;DHT22;39655;53.210;5.768;2023-09-19T04:14:36;14.30;83.00
53748;DHT22;39655;53.210;5.768;2023-09-19T04:17:02;14.30;83.30
53748;DHT22;39655;53.210;5.768;2023-09-19T04:19:28;14.30;83.20
53748;DHT22;39655;53.210;5.768;2023-09-19T04:21:54;14.40;82.90
53748;DHT22;39655;53.210;5.768;2023-09-19T04:24:20;14.40;82.20
53748;DHT22;39655;53.210;5.768;2023-09-19T04:26:46;14.40;81.90
53748;DHT22;39655;53.210;5.768;2023-09-19T04:29:11;14.50;80.40
53748;DHT22;39655;53.210;5.768;2023-09-19T04:31:39;14.50;79.70
53748;DHT22;39655;53.210;5.768;2023-09-19T04:34:06;14.60;79.10
53748;DHT22;39655;53.210;5.768;2023-09-19T04:36:31;14.60;79.70
53748;DHT22;39655;53.210;5.768;2023-09-19T04:38:57;14.60;79.60
53748;DHT22;39655;53.210;5.768;2023-09-19T04:41:23;14.60;79.70
53748;DHT22;39655;53.210;5.768;2023-09-19T04:43:49;14.60;79.50
53748;DHT22;39655;53.210;5.768;2023-09-19T04:46:16;14.60;78.50
53748;DHT22;39655;53.210;5.768;2023-09-19T04:48:43;14.60;77.50
53748;DHT22;39655;53.210;5.768;2023-09-19T04:51:08;14.70;76.60
53748;DHT22;39655;53.210;5.768;2023-09-19T04:53:36;14.70;76.30
53748;DHT22;39655;53.210;5.768;2023-09-19T04:56:01;14.70;76.80
53748;DHT22;39655;53.210;5.768;2023-09-19T04:58:29;14.70;77.40
53748;DHT22;39655;53.210;5.768;2023-09-19T05:00:55;14.70;77.40
53748;DHT22;39655;53.210;5.768;2023-09-19T05:03:22;14.80;77.90
53748;DHT22;39655;53.210;5.768;2023-09-19T05:05:48;14.80;78.70
53748;DHT22;39655;53.210;5.768;2023-09-19T05:08:14;14.80;78.80
53748;DHT22;39655;53.210;5.768;2023-09-19T05:10:40;14.80;79.10
53748;DHT22;39655;53.210;5.768;2023-09-19T05:13:06;14.80;79.20
53748;DHT22;39655;53.210;5.768;2023-09-19T05:15:33;14.80;79.40
53748;DHT22;39655;53.210;5.768;2023-09-19T05:17:59;14.80;79.20
53748;DHT22;39655;53.210;5.768;2023-09-19T05:20:25;14.80;79.40
53748;DHT22;39655;53.210;5.768;2023-09-19T05:23:02;14.90;78.90
53748;DHT22;39655;53.210;5.768;2023-09-19T05:25:32;14.80;78.90
53748;DHT22;39655;53.210;5.768;2023-09-19T05:27:58;14.80;78.50
53748;DHT22;39655;53.210;5.768;2023-09-19T05:30:27;14.80;78.70
53748;DHT22;39655;53.210;5.768;2023-09-19T05:32:54;14.80;79.40
53748;DHT22;39655;53.210;5.768;2023-09-19T05:35:20;14.70;79.80
53748;DHT22;39655;53.210;5.768;2023-09-19T05:37:47;14.70;80.20
53748;DHT22;39655;53.210;5.768;2023-09-19T05:40:19;14.80;80.10
53748;DHT22;39655;53.210;5.768;2023-09-19T05:42:45;14.70;80.30
53748;DHT22;39655;53.210;5.768;2023-09-19T05:45:11;14.70;80.10
53748;DHT22;39655;53.210;5.768;2023-09-19T05:47:41;14.70;80.60
53748;DHT22;39655;53.210;5.768;2023-09-19T05:50:10;14.70;80.70
53748;DHT22;39655;53.210;5.768;2023-09-19T05:52:36;14.70;80.70
53748;DHT22;39655;53.210;5.768;2023-09-19T05:55:04;14.80;80.80
53748;DHT22;39655;53.210;5.768;2023-09-19T05:57:32;14.80;80.70
53748;DHT22;39655;53.210;5.768;2023-09-19T05:59:58;14.90;80.10
53748;DHT22;39655;53.210;5.768;2023-09-19T06:02:23;14.90;79.00
53748;DHT22;39655;53.210;5.768;2023-09-19T06:04:50;15.00;78.60
53748;DHT22;39655;53.210;5.768;2023-09-19T06:07:18;14.90;78.00
53748;DHT22;39655;53.210;5.768;2023-09-19T06:09:44;15.00;77.80
53748;DHT22;39655;53.210;5.768;2023-09-19T06:12:09;15.00;77.70
53748;DHT22;39655;53.210;5.768;2023-09-19T06:14:39;15.00;77.90
53748;DHT22;39655;53.210;5.768;2023-09-19T06:17:05;15.00;78.30
53748;DHT22;39655;53.210;5.768;2023-09-19T06:19:31;15.10;78.00
53748;DHT22;39655;53.210;5.768;2023-09-19T06:21:58;15.10;78.00
53748;DHT22;39655;53.210;5.768;2023-09-19T06:24:25;15.10;78.20
53748;DHT22;39655;53.210;5.768;2023-09-19T06:26:51;15.10;78.30
53748;DHT22;39655;53.210;5.768;2023-09-19T06:29:18;15.20;78.20
53748;DHT22;39655;53.210;5.768;2023-09-19T06:31:43;15.20;78.20
53748;DHT22;39655;53.210;5.768;2023-09-19T06:34:10;15.20;78.40
53748;DHT22;39655;53.210;5.768;2023-09-19T06:36:36;15.20;78.50
53748;DHT22;39655;53.210;5.768;2023-09-19T06:39:01;15.20;77.80
53748;DHT22;39655;53.210;5.768;2023-09-19T06:41:29;15.30;77.10
53748;DHT22;39655;53.210;5.768;2023-09-19T06:43:55;15.40;76.70
53748;DHT22;39655;53.210;5.768;2023-09-19T06:46:21;15.40;77.30
53748;DHT22;39655;53.210;5.768;2023-09-19T06:48:47;15.40;77.20
53748;DHT22;39655;53.210;5.768;2023-09-19T06:51:14;15.40;77.90
53748;DHT22;39655;53.210;5.768;2023-09-19T06:53:41;15.40;77.60
53748;DHT22;39655;53.210;5.768;2023-09-19T06:56:07;15.50;76.80
53748;DHT22;39655;53.210;5.768;2023-09-19T06:58:33;15.60;76.20
53748;DHT22;39655;53.210;5.768;2023-09-19T07:00:58;15.60;75.20
53748;DHT22;39655;53.210;5.768;2023-09-19T07:03:24;15.70;74.20
53748;DHT22;39655;53.210;5.768;2023-09-19T07:05:52;15.70;74.30
53748;DHT22;39655;53.210;5.768;2023-09-19T07:08:18;15.80;74.50
53748;DHT22;39655;53.210;5.768;2023-09-19T07:10:45;15.80;74.90
53748;DHT22;39655;53.210;5.768;2023-09-19T07:13:14;15.80;75.00
53748;DHT22;39655;53.210;5.768;2023-09-19T07:15:42;15.80;74.90
53748;DHT22;39655;53.210;5.768;2023-09-19T07:18:13;15.80;75.40
53748;DHT22;39655;53.210;5.768;2023-09-19T07:20:40;15.80;75.00
53748;DHT22;39655;53.210;5.768;2023-09-19T07:23:11;15.70;75.60
53748;DHT22;39655;53.210;5.768;2023-09-19T07:25:39;15.80;75.80
53748;DHT22;39655;53.210;5.768;2023-09-19T07:28:05;15.70;75.90
53748;DHT22;39655;53.210;5.768;2023-09-19T07:30:31;15.80;75.90
53748;DHT22;39655;53.210;5.768;2023-09-19T07:32:57;15.90;75.30
53748;DHT22;39655;53.210;5.768;2023-09-19T07:35:22;16.00;74.80
53748;DHT22;39655;53.210;5.768;2023-09-19T07:37:49;16.10;74.40
53748;DHT22;39655;53.210;5.768;2023-09-19T07:40:18;16.20;73.80
53748;DHT22;39655;53.210;5.768;2023-09-19T07:42:44;16.40;73.60
53748;DHT22;39655;53.210;5.768;2023-09-19T07:45:12;16.50;73.70
53748;DHT22;39655;53.210;5.768;2023-09-19T07:47:44;16.60;73.50
53748;DHT22;39655;53.210;5.768;2023-09-19T07:50:10;16.60;73.10
53748;DHT22;39655;53.210;5.768;2023-09-19T07:52:37;16.70;72.20
53748;DHT22;39655;53.210;5.768;2023-09-19T07:55:07;16.70;71.70
53748;DHT22;39655;53.210;5.768;2023-09-19T07:57:35;16.80;71.30
53748;DHT22;39655;53.210;5.768;2023-09-19T08:00:01;16.70;71.20
53748;DHT22;39655;53.210;5.768;2023-09-19T08:02:33;16.80;71.00
53748;DHT22;39655;53.210;5.768;2023-09-19T08:04:59;16.80;71.10
53748;DHT22;39655;53.210;5.768;2023-09-19T08:07:26;16.90;71.20
53748;DHT22;39655;53.210;5.768;2023-09-19T08:09:51;16.90;71.70
53748;DHT22;39655;53.210;5.768;2023-09-19T08:12:17;17.00;70.70
53748;DHT22;39655;53.210;5.768;2023-09-19T08:14:43;17.10;71.20
53748;DHT22;39655;53.210;5.768;2023-09-19T08:17:08;17.20;71.70
53748;DHT22;39655;53.210;5.768;2023-09-19T08:19:34;17.20;71.60
53748;DHT22;39655;53.210;5.768;2023-09-19T08:22:09;17.30;69.10
53748;DHT22;39655;53.210;5.768;2023-09-19T08:24:36;17.20;69.50
53748;DHT22;39655;53.210;5.768;2023-09-19T08:27:04;17.10;69.90
53748;DHT22;39655;53.210;5.768;2023-09-19T08:29:30;17.10;70.70
53748;DHT22;39655;53.210;5.768;2023-09-19T08:31:57;17.10;71.30
53748;DHT22;39655;53.210;5.768;2023-09-19T08:34:24;17.20;71.40
53748;DHT22;39655;53.210;5.768;2023-09-19T08:36:54;17.30;70.60
53748;DHT22;39655;53.210;5.768;2023-09-19T08:39:23;17.30;69.80
53748;DHT22;39655;53.210;5.768;2023-09-19T08:41:49;17.50;69.00
53748;DHT22;39655;53.210;5.768;2023-09-19T08:44:15;17.60;69.70
53748;DHT22;39655;53.210;5.768;2023-09-19T08:46:41;17.70;67.90
53748;DHT22;39655;53.210;5.768;2023-09-19T08:51:46;17.70;67.50
53748;DHT22;39655;53.210;5.768;2023-09-19T08:54:24;17.70;67.90
53748;DHT22;39655;53.210;5.768;2023-09-19T08:56:53;17.80;68.40
53748;DHT22;39655;53.210;5.768;2023-09-19T08:59:22;17.90;67.20
53748;DHT22;39655;53.210;5.768;2023-09-19T09:01:53;17.90;66.80
53748;DHT22;39655;53.210;5.768;2023-09-19T09:04:19;17.90;67.20
53748;DHT22;39655;53.210;5.768;2023-09-19T09:06:46;17.90;67.50
53748;DHT22;39655;53.210;5.768;2023-09-19T09:09:15;17.80;68.10
53748;DHT22;39655;53.210;5.768;2023-09-19T09:11:41;17.90;67.70
53748;DHT22;39655;53.210;5.768;2023-09-19T09:14:07;17.90;67.20
53748;DHT22;39655;53.210;5.768;2023-09-19T09:16:33;18.00;67.40
53748;DHT22;39655;53.210;5.768;2023-09-19T09:19:00;18.10;67.20
53748;DHT22;39655;53.210;5.768;2023-09-19T09:21:27;18.10;67.70
53748;DHT22;39655;53.210;5.768;2023-09-19T09:23:54;18.10;66.30
53748;DHT22;39655;53.210;5.768;2023-09-19T09:29:04;18.20;67.60
53748;DHT22;39655;53.210;5.768;2023-09-19T09:31:30;18.30;67.10
53748;DHT22;39655;53.210;5.768;2023-09-19T09:33:56;18.50;68.40
53748;DHT22;39655;53.210;5.768;2023-09-19T09:36:39;18.70;67.40
53748;DHT22;39655;53.210;5.768;2023-09-19T09:39:07;18.80;66.40
53748;DHT22;39655;53.210;5.768;2023-09-19T09:41:44;18.90;66.90
53748;DHT22;39655;53.210;5.768;2023-09-19T09:44:15;19.00;65.30
53748;DHT22;39655;53.210;5.768;2023-09-19T09:46:44;19.10;65.70
53748;DHT22;39655;53.210;5.768;2023-09-19T09:49:22;19.20;67.30
53748;DHT22;39655;53.210;5.768;2023-09-19T09:52:03;19.20;67.00
53748;DHT22;39655;53.210;5.768;2023-09-19T09:54:34;19.20;65.50
53748;DHT22;39655;53.210;5.768;2023-09-19T09:57:10;19.10;67.20
53748;DHT22;39655;53.210;5.768;2023-09-19T09:59:57;19.00;67.50
53748;DHT22;39655;53.210;5.768;2023-09-19T10:02:42;19.00;67.20
53748;DHT22;39655;53.210;5.768;2023-09-19T10:05:18;19.00;68.10
53748;DHT22;39655;53.210;5.768;2023-09-19T10:07:53;19.10;68.90
53748;DHT22;39655;53.210;5.768;2023-09-19T10:10:48;19.10;68.10
53748;DHT22;39655;53.210;5.768;2023-09-19T10:13:30;19.30;68.00
53748;DHT22;39655;53.210;5.768;2023-09-19T10:15:58;19.50;67.20
53748;DHT22;39655;53.210;5.768;2023-09-19T10:18:31;19.60;66.90
53748;DHT22;39655;53.210;5.768;2023-09-19T10:21:02;19.60;64.90
53748;DHT22;39655;53.210;5.768;2023-09-19T10:23:31;19.50;66.00
53748;DHT22;39655;53.210;5.768;2023-09-19T10:26:01;19.40;65.90
53748;DHT22;39655;53.210;5.768;2023-09-19T10:28:28;19.40;66.60
53748;DHT22;39655;53.210;5.768;2023-09-19T10:30:56;19.40;66.50
53748;DHT22;39655;53.210;5.768;2023-09-19T10:33:24;19.40;67.20
53748;DHT22;39655;53.210;5.768;2023-09-19T10:35:57;19.40;68.10
53748;DHT22;39655;53.210;5.768;2023-09-19T10:38:26;19.40;68.70
53748;DHT22;39655;53.210;5.768;2023-09-19T10:40:55;19.30;69.20
53748;DHT22;39655;53.210;5.768;2023-09-19T10:43:30;19.10;71.30
53748;DHT22;39655;53.210;5.768;2023-09-19T10:46:01;19.00;72.40
53748;DHT22;39655;53.210;5.768;2023-09-19T10:48:29;18.80;72.70
53748;DHT22;39655;53.210;5.768;2023-09-19T10:51:12;18.60;73.70
53748;DHT22;39655;53.210;5.768;2023-09-19T10:53:52;18.40;74.40
53748;DHT22;39655;53.210;5.768;2023-09-19T10:56:24;18.30;76.70
53748;DHT22;39655;53.210;5.768;2023-09-19T10:59:08;18.00;78.40
53748;DHT22;39655;53.210;5.768;2023-09-19T11:01:52;17.80;80.30
53748;DHT22;39655;53.210;5.768;2023-09-19T11:04:29;18.10;80.20
53748;DHT22;39655;53.210;5.768;2023-09-19T11:07:05;18.40;79.20
53748;DHT22;39655;53.210;5.768;2023-09-19T11:15:07;18.60;75.70
53748;DHT22;39655;53.210;5.768;2023-09-19T11:17:35;18.50;76.30
53748;DHT22;39655;53.210;5.768;2023-09-19T11:30:47;18.10;78.60
53748;DHT22;39655;53.210;5.768;2023-09-19T11:33:30;18.20;78.50
53748;DHT22;39655;53.210;5.768;2023-09-19T11:36:03;18.10;78.30
53748;DHT22;39655;53.210;5.768;2023-09-19T11:46:33;17.40;83.30
53748;DHT22;39655;53.210;5.768;2023-09-19T11:49:09;17.10;84.10
53748;DHT22;39655;53.210;5.768;2023-09-19T11:51:41;17.10;85.00
53748;DHT22;39655;53.210;5.768;2023-09-19T11:54:14;17.00;86.10
53748;DHT22;39655;53.210;5.768;2023-09-19T11:56:54;16.90;87.30
53748;DHT22;39655;53.210;5.768;2023-09-19T11:59:21;16.90;88.10
53748;DHT22;39655;53.210;5.768;2023-09-19T12:01:52;16.80;88.60
53748;DHT22;39655;53.210;5.768;2023-09-19T12:04:43;16.90;89.00
53748;DHT22;39655;53.210;5.768;2023-09-19T12:07:14;17.10;89.00
53748;DHT22;39655;53.210;5.768;2023-09-19T12:09:45;17.20;88.80
53748;DHT22;39655;53.210;5.768;2023-09-19T12:12:23;17.40;88.50
53748;DHT22;39655;53.210;5.768;2023-09-19T12:14:50;17.70;87.40
53748;DHT22;39655;53.210;5.768;2023-09-19T12:17:17;17.90;86.60
53748;DHT22;39655;53.210;5.768;2023-09-19T12:19:51;18.00;85.50
53748;DHT22;39655;53.210;5.768;2023-09-19T12:22:17;18.20;84.70
53748;DHT22;39655;53.210;5.768;2023-09-19T12:24:44;18.20;84.40
53748;DHT22;39655;53.210;5.768;2023-09-19T12:27:11;18.30;83.70
53748;DHT22;39655;53.210;5.768;2023-09-19T12:29:49;18.40;83.50
53748;DHT22;39655;53.210;5.768;2023-09-19T12:32:15;18.40;83.10
53748;DHT22;39655;53.210;5.768;2023-09-19T12:34:52;18.30;82.90
53748;DHT22;39655;53.210;5.768;2023-09-19T12:37:20;18.10;82.20
53748;DHT22;39655;53.210;5.768;2023-09-19T12:39:53;18.00;82.90
53748;DHT22;39655;53.210;5.768;2023-09-19T12:42:24;17.60;84.60
53748;DHT22;39655;53.210;5.768;2023-09-19T12:44:53;17.40;86.00
53748;DHT22;39655;53.210;5.768;2023-09-19T12:47:22;17.20;86.90
53748;DHT22;39655;53.210;5.768;2023-09-19T12:50:11;17.00;87.00
53748;DHT22;39655;53.210;5.768;2023-09-19T12:52:47;16.90;88.40
53748;DHT22;39655;53.210;5.768;2023-09-19T12:55:28;16.70;89.40
53748;DHT22;39655;53.210;5.768;2023-09-19T13:00:41;16.60;90.80
53748;DHT22;39655;53.210;5.768;2023-09-19T13:03:14;16.50;91.50
53748;DHT22;39655;53.210;5.768;2023-09-19T13:05:58;16.50;91.40
53748;DHT22;39655;53.210;5.768;2023-09-19T13:08:30;16.60;91.50
53748;DHT22;39655;53.210;5.768;2023-09-19T13:11:12;16.70;91.60
53748;DHT22;39655;53.210;5.768;2023-09-19T13:13:49;16.90;91.40
53748;DHT22;39655;53.210;5.768;2023-09-19T13:16:20;17.10;91.10
53748;DHT22;39655;53.210;5.768;2023-09-19T13:18:54;17.20;90.40
53748;DHT22;39655;53.210;5.768;2023-09-19T13:21:48;17.40;89.50
53748;DHT22;39655;53.210;5.768;2023-09-19T13:24:24;17.60;88.70
53748;DHT22;39655;53.210;5.768;2023-09-19T13:26:56;17.70;87.90
53748;DHT22;39655;53.210;5.768;2023-09-19T13:29:22;17.90;87.10
53748;DHT22;39655;53.210;5.768;2023-09-19T13:31:49;18.00;86.00
53748;DHT22;39655;53.210;5.768;2023-09-19T13:34:15;18.00;86.40
53748;DHT22;39655;53.210;5.768;2023-09-19T13:36:43;18.10;86.20
53748;DHT22;39655;53.210;5.768;2023-09-19T13:39:08;18.10;86.00
53748;DHT22;39655;53.210;5.768;2023-09-19T13:41:35;18.00;86.50
53748;DHT22;39655;53.210;5.768;2023-09-19T13:44:04;17.80;86.50
53748;DHT22;39655;53.210;5.768;2023-09-19T13:46:30;17.60;87.40
53748;DHT22;39655;53.210;5.768;2023-09-19T13:48:59;17.50;88.50
53748;DHT22;39655;53.210;5.768;2023-09-19T13:51:31;17.50;88.60
53748;DHT22;39655;53.210;5.768;2023-09-19T13:53:58;17.60;88.60
53748;DHT22;39655;53.210;5.768;2023-09-19T13:56:25;17.60;88.20
53748;DHT22;39655;53.210;5.768;2023-09-19T13:58:56;17.60;87.70
53748;DHT22;39655;53.210;5.768;2023-09-19T14:01:22;17.70;87.70
53748;DHT22;39655;53.210;5.768;2023-09-19T14:03:47;17.70;87.40
53748;DHT22;39655;53.210;5.768;2023-09-19T14:06:18;17.70;87.30
53748;DHT22;39655;53.210;5.768;2023-09-19T14:08:44;17.60;87.80
53748;DHT22;39655;53.210;5.768;2023-09-19T14:11:13;17.50;89.00
53748;DHT22;39655;53.210;5.768;2023-09-19T14:13:43;17.20;89.80
53748;DHT22;39655;53.210;5.768;2023-09-19T14:16:15;17.10;90.50
53748;DHT22;39655;53.210;5.768;2023-09-19T14:18:41;17.10;90.70
53748;DHT22;39655;53.210;5.768;2023-09-19T14:21:07;17.10;90.50
53748;DHT22;39655;53.210;5.768;2023-09-19T14:23:40;17.20;90.30
53748;DHT22;39655;53.210;5.768;2023-09-19T14:26:08;17.20;90.00
53748;DHT22;39655;53.210;5.768;2023-09-19T14:28:34;17.30;89.80
53748;DHT22;39655;53.210;5.768;2023-09-19T14:31:08;17.50;89.00
53748;DHT22;39655;53.210;5.768;2023-09-19T14:33:34;17.50;89.00
53748;DHT22;39655;53.210;5.768;2023-09-19T14:36:04;17.60;88.60
53748;DHT22;39655;53.210;5.768;2023-09-19T14:38:33;17.60;88.30
53748;DHT22;39655;53.210;5.768;2023-09-19T14:41:02;17.70;88.00
53748;DHT22;39655;53.210;5.768;2023-09-19T14:43:29;17.70;88.00
53748;DHT22;39655;53.210;5.768;2023-09-19T14:45:56;17.70;88.10
53748;DHT22;39655;53.210;5.768;2023-09-19T14:48:24;17.70;88.10
53748;DHT22;39655;53.210;5.768;2023-09-19T14:50:52;17.80;87.80
53748;DHT22;39655;53.210;5.768;2023-09-19T14:53:18;17.80;88.10
53748;DHT22;39655;53.210;5.768;2023-09-19T14:55:44;17.80;88.00
53748;DHT22;39655;53.210;5.768;2023-09-19T14:58:10;17.90;87.60
53748;DHT22;39655;53.210;5.768;2023-09-19T15:00:37;17.90;87.50
53748;DHT22;39655;53.210;5.768;2023-09-19T15:03:04;17.90;87.50
53748;DHT22;39655;53.210;5.768;2023-09-19T15:05:29;18.00;87.00
53748;DHT22;39655;53.210;5.768;2023-09-19T15:07:56;18.00;86.90
53748;DHT22;39655;53.210;5.768;2023-09-19T15:10:23;18.00;86.80
53748;DHT22;39655;53.210;5.768;2023-09-19T15:12:48;18.10;86.30
53748;DHT22;39655;53.210;5.768;2023-09-19T15:15:14;18.10;86.50
53748;DHT22;39655;53.210;5.768;2023-09-19T15:17:40;18.10;86.80
53748;DHT22;39655;53.210;5.768;2023-09-19T15:20:07;18.10;86.90
53748;DHT22;39655;53.210;5.768;2023-09-19T15:22:33;18.10;87.00
53748;DHT22;39655;53.210;5.768;2023-09-19T15:25:00;18.00;87.20
53748;DHT22;39655;53.210;5.768;2023-09-19T15:27:28;18.00;87.60
53748;DHT22;39655;53.210;5.768;2023-09-19T15:29:56;17.90;88.00
53748;DHT22;39655;53.210;5.768;2023-09-19T15:32:24;17.80;88.50
53748;DHT22;39655;53.210;5.768;2023-09-19T15:34:50;17.70;88.90
53748;DHT22;39655;53.210;5.768;2023-09-19T15:37:15;17.70;89.50
53748;DHT22;39655;53.210;5.768;2023-09-19T15:39:41;17.70;89.70
53748;DHT22;39655;53.210;5.768;2023-09-19T15:42:07;17.60;89.80
53748;DHT22;39655;53.210;5.768;2023-09-19T15:44:33;17.70;90.10
53748;DHT22;39655;53.210;5.768;2023-09-19T15:46:59;17.60;90.30
53748;DHT22;39655;53.210;5.768;2023-09-19T15:49:25;17.50;90.70
53748;DHT22;39655;53.210;5.768;2023-09-19T15:51:50;17.40;91.20
53748;DHT22;39655;53.210;5.768;2023-09-19T15:54:16;17.40;91.70
53748;DHT22;39655;53.210;5.768;2023-09-19T15:56:44;17.20;92.10
53748;DHT22;39655;53.210;5.768;2023-09-19T15:59:11;17.10;92.20
53748;DHT22;39655;53.210;5.768;2023-09-19T16:01:38;17.10;92.60
53748;DHT22;39655;53.210;5.768;2023-09-19T16:04:05;17.10;93.30
53748;DHT22;39655;53.210;5.768;2023-09-19T16:06:34;17.00;93.20
53748;DHT22;39655;53.210;5.768;2023-09-19T16:09:00;16.80;93.40
53748;DHT22;39655;53.210;5.768;2023-09-19T16:11:31;16.80;93.80
53748;DHT22;39655;53.210;5.768;2023-09-19T16:13:57;16.70;94.10
53748;DHT22;39655;53.210;5.768;2023-09-19T16:16:25;16.70;94.40
53748;DHT22;39655;53.210;5.768;2023-09-19T16:18:58;16.60;94.50